createdAt,value
2022-10-09T00:02:01.996Z,10.15
2022-10-09T00:05:03.803Z,10.17
2022-10-09T00:08:05.604Z,10.03
2022-10-09T00:11:09.047Z,10.02
2022-10-09T00:14:10.426Z,9.96
2022-10-09T00:17:11.902Z,9.85
2022-10-09T00:20:13.333Z,9.88
2022-10-09T00:23:17.251Z,9.89
2022-10-09T00:26:19.522Z,9.91
2022-10-09T00:29:20.903Z,9.89
2022-10-09T00:32:22.443Z,9.86
2022-10-09T00:35:23.848Z,9.80
2022-10-09T00:38:25.290Z,9.59
2022-10-09T00:41:29.624Z,9.55
2022-10-09T00:44:52.666Z,9.49
2022-10-09T00:48:06.856Z,9.50
2022-10-09T00:51:09.152Z,9.54
2022-10-09T00:54:14.837Z,9.47
2022-10-09T00:57:16.438Z,9.40
2022-10-09T01:00:18.461Z,9.38
2022-10-09T01:03:20.269Z,9.36
2022-10-09T01:06:33.707Z,9.29
2022-10-09T01:09:56.720Z,9.27
2022-10-09T01:13:08.958Z,9.19
2022-10-09T01:16:23.877Z,9.20
2022-10-09T01:19:37.022Z,9.15
2022-10-09T01:23:10.736Z,8.99
2022-10-09T01:26:45.685Z,8.90
2022-10-09T01:29:51.573Z,8.78
2022-10-09T01:32:54.131Z,8.82
2022-10-09T01:35:55.952Z,8.83
2022-10-09T01:39:00.500Z,8.89
2022-10-09T01:42:02.417Z,8.92
2022-10-09T01:45:04.493Z,8.91
2022-10-09T01:48:09.256Z,8.88
2022-10-09T01:51:10.788Z,8.85
2022-10-09T01:54:14.875Z,8.86
2022-10-09T01:57:26.598Z,8.91
2022-10-09T02:00:33.420Z,8.84
2022-10-09T02:03:38.307Z,8.71
2022-10-09T02:06:41.640Z,8.70
2022-10-09T02:09:44.299Z,8.61
2022-10-09T02:12:51.721Z,8.61
2022-10-09T02:16:00.612Z,8.61
2022-10-09T02:19:08.373Z,8.65
2022-10-09T02:22:20.310Z,8.63
2022-10-09T02:25:21.900Z,8.52
2022-10-09T02:28:23.553Z,8.43
2022-10-09T02:31:30.868Z,8.50
2022-10-09T02:34:32.570Z,8.49
2022-10-09T02:37:34.047Z,8.55
2022-10-09T02:40:35.482Z,8.53
2022-10-09T02:43:36.852Z,8.61
2022-10-09T02:46:38.462Z,8.70
2022-10-09T02:49:40.010Z,8.79
2022-10-09T02:52:41.388Z,8.60
2022-10-09T02:55:42.802Z,8.44
2022-10-09T02:58:44.178Z,8.27
2022-10-09T03:01:45.677Z,8.31
2022-10-09T03:04:47.168Z,8.20
2022-10-09T03:07:51.523Z,8.25
2022-10-09T03:10:52.926Z,8.28
2022-10-09T03:13:54.547Z,8.22
2022-10-09T03:16:55.933Z,8.23
2022-10-09T03:19:57.385Z,8.24
2022-10-09T03:22:58.770Z,8.30
2022-10-09T03:26:03.201Z,8.24
2022-10-09T03:29:04.603Z,8.29
2022-10-09T03:32:06.083Z,8.34
2022-10-09T03:35:07.880Z,8.29
2022-10-09T03:38:09.267Z,8.18
2022-10-09T03:41:10.722Z,8.09
2022-10-09T03:44:12.167Z,8.11
2022-10-09T03:47:13.669Z,8.03
2022-10-09T03:50:15.120Z,7.93
2022-10-09T03:53:17.876Z,8.00
2022-10-09T03:56:20.151Z,7.93
2022-10-09T03:59:21.583Z,7.93
2022-10-09T04:02:23.064Z,7.93
2022-10-09T04:05:24.574Z,7.96
2022-10-09T04:08:26.386Z,8.04
2022-10-09T04:11:27.977Z,8.04
2022-10-09T04:14:29.379Z,8.04
2022-10-09T04:17:31.006Z,8.08
2022-10-09T04:20:32.614Z,8.10
2022-10-09T04:23:34.090Z,8.08
2022-10-09T04:26:35.891Z,7.99
2022-10-09T04:29:39.349Z,7.88
2022-10-09T04:32:40.758Z,7.82
2022-10-09T04:35:43.527Z,7.63
2022-10-09T04:38:44.912Z,7.46
2022-10-09T04:41:46.285Z,7.57
2022-10-09T04:44:47.684Z,7.82
2022-10-09T04:47:49.097Z,8.05
2022-10-09T04:50:50.497Z,7.94
2022-10-09T04:53:52.068Z,7.84
2022-10-09T04:56:53.536Z,7.74
2022-10-09T04:59:54.917Z,7.68
2022-10-09T05:02:56.342Z,7.65
2022-10-09T05:06:02.220Z,7.63
2022-10-09T05:09:04.028Z,7.63
2022-10-09T05:12:05.468Z,7.65
2022-10-09T05:15:07.242Z,7.69
2022-10-09T05:18:08.627Z,7.60
2022-10-09T05:21:10.390Z,7.45
2022-10-09T05:24:11.788Z,7.49
2022-10-09T05:27:13.156Z,7.51
2022-10-09T05:30:14.541Z,7.52
2022-10-09T05:33:16.281Z,7.50
2022-10-09T05:36:17.833Z,7.50
2022-10-09T05:39:19.214Z,7.45
2022-10-09T05:42:20.595Z,7.44
2022-10-09T05:45:22.623Z,7.38
2022-10-09T05:48:24.038Z,7.34
2022-10-09T05:51:37.521Z,7.40
2022-10-09T05:54:38.957Z,7.39
2022-10-09T05:57:40.363Z,7.28
2022-10-09T06:00:41.738Z,7.20
2022-10-09T06:03:43.146Z,7.20
2022-10-09T06:06:47.427Z,7.22
2022-10-09T06:09:48.842Z,7.17
2022-10-09T06:12:50.517Z,7.22
2022-10-09T06:15:53.925Z,7.26
2022-10-09T06:18:56.230Z,7.29
2022-10-09T06:21:57.621Z,7.41
2022-10-09T06:24:59.041Z,7.42
2022-10-09T06:28:00.446Z,7.50
2022-10-09T06:31:13.094Z,7.53
2022-10-09T06:34:14.505Z,7.62
2022-10-09T06:37:15.897Z,7.66
2022-10-09T06:40:17.279Z,7.78
2022-10-09T06:43:18.868Z,7.89
2022-10-09T06:46:21.919Z,8.02
2022-10-09T06:49:23.485Z,8.17
2022-10-09T06:52:24.869Z,8.28
2022-10-09T06:55:28.748Z,8.38
2022-10-09T06:58:30.706Z,8.52
2022-10-09T07:01:32.936Z,8.68
2022-10-09T07:04:34.432Z,8.89
2022-10-09T07:07:39.716Z,9.12
2022-10-09T07:10:41.090Z,9.31
2022-10-09T07:13:43.664Z,9.45
2022-10-09T07:16:47.101Z,9.66
2022-10-09T07:19:49.170Z,9.84
2022-10-09T07:22:51.111Z,10.05
2022-10-09T07:25:52.845Z,10.23
2022-10-09T07:28:54.383Z,10.38
2022-10-09T07:31:55.760Z,10.62
2022-10-09T07:34:57.145Z,10.83
2022-10-09T07:37:58.680Z,11.02
2022-10-09T07:41:06.445Z,11.39
2022-10-09T07:44:07.937Z,11.63
2022-10-09T07:47:09.444Z,11.82
2022-10-09T07:50:11.932Z,12.04
2022-10-09T07:53:13.333Z,12.10
2022-10-09T07:56:16.878Z,12.05
2022-10-09T07:59:18.333Z,12.12
2022-10-09T08:02:19.857Z,12.21
2022-10-09T08:05:21.426Z,12.25
2022-10-09T08:08:22.864Z,12.33
2022-10-09T08:11:25.977Z,12.37
2022-10-09T08:14:27.490Z,12.48
2022-10-09T08:17:28.880Z,12.49
2022-10-09T08:20:30.266Z,12.63
2022-10-09T08:23:31.676Z,12.76
2022-10-09T08:26:33.217Z,12.84
2022-10-09T08:29:37.971Z,12.87
2022-10-09T08:32:41.694Z,12.98
2022-10-09T08:35:43.140Z,13.15
2022-10-09T08:38:47.666Z,13.16
2022-10-09T08:41:53.357Z,13.39
2022-10-09T08:44:55.133Z,13.41
2022-10-09T08:48:06.432Z,13.37
2022-10-09T08:51:18.480Z,13.43
2022-10-09T08:54:40.303Z,13.67
2022-10-09T08:57:44.167Z,13.80
2022-10-09T09:00:52.035Z,13.68
2022-10-09T09:04:32.725Z,13.86
2022-10-09T09:07:40.236Z,13.96
2022-10-09T09:10:50.570Z,14.14
2022-10-09T09:14:21.183Z,14.18
2022-10-09T09:17:22.536Z,14.34
2022-10-09T09:20:52.894Z,14.41
2022-10-09T09:23:55.393Z,14.48
2022-10-09T09:27:01.964Z,14.56
2022-10-09T09:30:15.894Z,14.61
2022-10-09T09:33:58.253Z,14.82
2022-10-09T09:37:00.195Z,14.89
2022-10-09T09:40:35.470Z,14.96
2022-10-09T09:43:25.339Z,15.25
2022-10-09T09:46:29.849Z,15.32
2022-10-09T09:49:31.326Z,15.32
2022-10-09T09:52:40.595Z,15.40
2022-10-09T09:55:42.404Z,15.76
2022-10-09T09:58:50.202Z,15.96
2022-10-09T10:02:00.586Z,16.03
2022-10-09T10:05:16.245Z,15.99
2022-10-09T10:08:29.585Z,16.26
2022-10-09T10:11:33.064Z,16.36
2022-10-09T10:14:35.285Z,16.55
2022-10-09T10:17:37.354Z,16.71
2022-10-09T10:20:51.009Z,16.73
2022-10-09T10:27:22.302Z,16.56
2022-10-09T10:30:23.898Z,16.73
2022-10-09T10:33:29.634Z,16.66
2022-10-09T10:36:33.839Z,16.76
2022-10-09T10:40:05.025Z,16.99
2022-10-09T10:43:09.494Z,17.03
2022-10-09T10:46:32.447Z,17.11
2022-10-09T10:49:34.179Z,17.10
2022-10-09T10:53:20.312Z,17.10
2022-10-09T10:56:37.845Z,17.20
2022-10-09T10:59:44.950Z,17.34
2022-10-09T11:03:08.167Z,17.35
2022-10-09T11:06:23.101Z,17.56
2022-10-09T11:09:44.925Z,17.70
2022-10-09T11:12:58.063Z,17.79
2022-10-09T11:16:33.506Z,17.92
2022-10-09T11:19:57.149Z,17.88
2022-10-09T11:23:31.470Z,17.91
2022-10-09T11:26:59.662Z,18.00
2022-10-09T11:30:13.751Z,17.85
2022-10-09T11:33:18.162Z,17.75
2022-10-09T11:36:27.518Z,17.88
2022-10-09T11:39:32.356Z,17.94
2022-10-09T11:42:34.029Z,18.08
2022-10-09T11:45:47.411Z,17.98
2022-10-09T11:49:03.948Z,18.08
2022-10-09T11:52:11.465Z,18.27
2022-10-09T11:55:20.624Z,18.32
2022-10-09T11:58:24.339Z,18.30
2022-10-09T12:01:33.223Z,18.33
2022-10-09T12:04:53.917Z,18.34
2022-10-09T12:08:07.544Z,18.07
2022-10-09T12:11:13.157Z,18.05
2022-10-09T12:14:24.835Z,18.08
2022-10-09T12:17:26.155Z,18.21
2022-10-09T12:20:28.262Z,18.07
2022-10-09T12:23:34.532Z,18.09
2022-10-09T12:26:36.507Z,18.06
2022-10-09T12:29:45.818Z,18.23
2022-10-09T12:32:53.818Z,18.25
2022-10-09T12:36:12.468Z,18.44
2022-10-09T12:39:24.257Z,18.47
2022-10-09T12:42:26.878Z,18.48
2022-10-09T12:45:30.725Z,18.47
2022-10-09T12:48:38.323Z,18.49
2022-10-09T12:51:39.833Z,18.51
2022-10-09T12:54:44.075Z,18.65
2022-10-09T12:57:45.778Z,18.65
2022-10-09T13:00:49.457Z,18.53
2022-10-09T13:04:05.097Z,18.70
2022-10-09T13:07:16.530Z,18.66
2022-10-09T13:10:23.167Z,18.68
2022-10-09T13:13:28.193Z,18.63
2022-10-09T13:16:41.954Z,18.65
2022-10-09T13:19:54.606Z,18.65
2022-10-09T13:23:01.743Z,18.74
2022-10-09T13:26:05.690Z,18.71
2022-10-09T13:29:07.886Z,18.74
2022-10-09T13:32:12.959Z,18.79
2022-10-09T13:35:14.444Z,18.84
2022-10-09T13:38:17.772Z,18.87
2022-10-09T13:41:24.200Z,18.96
2022-10-09T13:44:25.656Z,18.98
2022-10-09T13:47:27.029Z,19.09
2022-10-09T13:50:29.331Z,19.16
2022-10-09T13:53:30.780Z,19.15
2022-10-09T13:56:32.232Z,19.25
2022-10-09T13:59:33.745Z,19.30
2022-10-09T14:02:35.225Z,19.39
2022-10-09T14:05:36.615Z,19.49
2022-10-09T14:08:38.008Z,19.53
2022-10-09T14:11:39.460Z,19.63
2022-10-09T14:14:41.056Z,19.82
2022-10-09T14:17:42.591Z,20.01
2022-10-09T14:20:44.435Z,20.10
2022-10-09T14:23:45.832Z,20.25
2022-10-09T14:26:51.366Z,20.31
2022-10-09T14:29:55.335Z,20.28
2022-10-09T14:32:59.268Z,20.06
2022-10-09T14:36:09.190Z,20.12
2022-10-09T14:39:10.759Z,19.89
2022-10-09T14:42:12.210Z,19.74
2022-10-09T14:45:13.597Z,19.69
2022-10-09T14:48:14.982Z,19.61
2022-10-09T14:51:19.607Z,19.50
2022-10-09T14:54:21.209Z,19.52
2022-10-09T14:57:22.592Z,19.50
2022-10-09T15:00:24.011Z,19.32
2022-10-09T15:03:27.117Z,19.24
2022-10-09T15:06:28.751Z,19.09
2022-10-09T15:09:30.246Z,19.05
2022-10-09T15:12:31.651Z,19.00
2022-10-09T15:15:33.106Z,18.98
2022-10-09T15:18:35.444Z,18.97
2022-10-09T15:21:36.949Z,18.97
2022-10-09T15:24:38.553Z,18.91
2022-10-09T15:27:39.970Z,18.84
2022-10-09T15:30:46.305Z,18.78
2022-10-09T15:33:52.485Z,18.79
2022-10-09T15:36:53.957Z,18.72
2022-10-09T15:39:55.405Z,18.73
2022-10-09T15:42:56.802Z,18.65
2022-10-09T15:46:04.615Z,18.60
2022-10-09T15:49:06.830Z,18.58
2022-10-09T15:52:08.499Z,18.56
2022-10-09T15:55:09.937Z,18.54
2022-10-09T15:58:12.289Z,18.40
2022-10-09T16:01:15.690Z,18.29
2022-10-09T16:04:17.224Z,18.16
2022-10-09T16:07:18.625Z,18.06
2022-10-09T16:10:20.005Z,18.08
2022-10-09T16:13:23.324Z,17.95
2022-10-09T16:16:27.414Z,17.91
2022-10-09T16:19:28.889Z,17.83
2022-10-09T16:22:30.384Z,17.79
2022-10-09T16:25:31.994Z,17.67
2022-10-09T16:28:34.383Z,17.61
2022-10-09T16:31:36.970Z,17.57
2022-10-09T16:34:38.368Z,17.45
2022-10-09T16:37:39.771Z,17.36
2022-10-09T16:41:02.677Z,17.27
2022-10-09T16:44:06.232Z,17.18
2022-10-09T16:47:08.038Z,17.16
2022-10-09T16:50:10.405Z,17.05
2022-10-09T16:53:11.860Z,16.96
2022-10-09T16:56:19.923Z,16.86
2022-10-09T16:59:21.334Z,16.78
2022-10-09T17:02:22.836Z,16.73
2022-10-09T17:05:25.384Z,16.69
2022-10-09T17:08:26.933Z,16.62
2022-10-09T17:11:30.464Z,16.50
2022-10-09T17:14:32.005Z,16.42
2022-10-09T17:17:33.723Z,16.38
2022-10-09T17:20:37.302Z,16.29
2022-10-09T17:23:39.131Z,16.24
2022-10-09T17:26:40.683Z,16.19
2022-10-09T17:29:42.096Z,16.14
2022-10-09T17:32:43.478Z,16.06
2022-10-09T17:35:44.876Z,16.01
2022-10-09T17:38:48.146Z,15.99
2022-10-09T17:41:49.802Z,15.96
2022-10-09T17:44:51.206Z,15.91
2022-10-09T17:47:52.732Z,15.82
2022-10-09T17:50:56.381Z,15.75
2022-10-09T17:54:01.018Z,15.71
2022-10-09T17:57:05.147Z,15.63
2022-10-09T18:00:07.276Z,15.59
2022-10-09T18:03:08.840Z,15.55
2022-10-09T18:06:13.361Z,15.53
2022-10-09T18:09:14.742Z,15.48
2022-10-09T18:12:16.169Z,15.40
2022-10-09T18:15:17.673Z,15.38
2022-10-09T18:18:19.258Z,15.32
2022-10-09T18:21:20.663Z,15.22
2022-10-09T18:24:22.066Z,15.20
2022-10-09T18:27:23.877Z,15.15
2022-10-09T18:30:25.708Z,15.13
2022-10-09T18:33:27.119Z,15.11
2022-10-09T18:36:34.288Z,15.06
2022-10-09T18:39:35.808Z,15.02
2022-10-09T18:42:37.275Z,14.96
2022-10-09T18:45:44.286Z,14.90
2022-10-09T18:48:45.852Z,14.85
2022-10-09T18:51:48.710Z,14.80
2022-10-09T18:54:53.006Z,14.77
2022-10-09T18:57:55.125Z,14.72
2022-10-09T19:00:56.575Z,14.68
2022-10-09T19:03:58.046Z,14.66
2022-10-09T19:07:00.040Z,14.60
2022-10-09T19:10:01.542Z,14.52
2022-10-09T19:13:03.188Z,14.55
2022-10-09T19:16:05.612Z,14.53
2022-10-09T19:19:07.208Z,14.52
2022-10-09T19:22:14.113Z,14.47
2022-10-09T19:25:16.864Z,14.48
2022-10-09T19:28:19.236Z,14.47
2022-10-09T19:31:20.825Z,14.41
2022-10-09T19:34:22.333Z,14.40
2022-10-09T19:37:27.449Z,14.37
2022-10-09T19:40:31.229Z,14.37
2022-10-09T19:43:33.325Z,14.35
2022-10-09T19:46:39.609Z,14.39
2022-10-09T19:49:41.919Z,14.33
2022-10-09T19:52:46.781Z,14.28
2022-10-09T19:55:48.200Z,14.22
2022-10-09T19:58:49.905Z,14.21
2022-10-09T20:01:56.594Z,14.14
2022-10-09T20:04:58.902Z,14.08
2022-10-09T20:08:00.827Z,14.07
2022-10-09T20:11:03.921Z,14.03
2022-10-09T20:14:05.532Z,14.03
2022-10-09T20:17:06.942Z,14.13
2022-10-09T20:20:08.637Z,14.06
2022-10-09T20:23:10.013Z,14.03
2022-10-09T20:26:14.701Z,13.98
2022-10-09T20:29:16.111Z,13.91
2022-10-09T20:32:18.389Z,13.85
2022-10-09T20:35:19.907Z,13.82
2022-10-09T20:38:25.563Z,13.82
2022-10-09T20:41:29.974Z,13.79
2022-10-09T20:44:31.363Z,13.80
2022-10-09T20:47:32.784Z,13.75
2022-10-09T20:50:38.773Z,13.78
2022-10-09T20:53:40.136Z,13.77
2022-10-09T20:56:41.897Z,13.73
2022-10-09T20:59:43.717Z,13.77
2022-10-09T21:02:45.131Z,13.79
2022-10-09T21:05:46.626Z,13.69
2022-10-09T21:08:48.548Z,13.70
2022-10-09T21:11:50.600Z,13.68
2022-10-09T21:14:52.017Z,13.58
2022-10-09T21:17:53.406Z,13.54
2022-10-09T21:20:54.913Z,13.53
2022-10-09T21:23:58.343Z,13.52
2022-10-09T21:26:59.778Z,13.50
2022-10-09T21:30:01.176Z,13.48
2022-10-09T21:33:02.579Z,13.48
2022-10-09T21:36:13.081Z,13.39
2022-10-09T21:39:14.534Z,13.34
2022-10-09T21:42:15.975Z,13.34
2022-10-09T21:45:17.921Z,13.27
2022-10-09T21:48:19.496Z,13.29
2022-10-09T21:51:21.054Z,13.27
2022-10-09T21:54:22.711Z,13.19
2022-10-09T21:57:24.094Z,13.14
2022-10-09T22:00:25.532Z,13.10
2022-10-09T22:03:29.932Z,13.14
2022-10-09T22:06:31.352Z,13.12
2022-10-09T22:09:32.789Z,13.14
2022-10-09T22:12:34.550Z,13.14
2022-10-09T22:15:40.697Z,13.09
2022-10-09T22:18:42.682Z,13.13
2022-10-09T22:21:44.129Z,13.17
2022-10-09T22:24:45.559Z,13.15
2022-10-09T22:27:46.985Z,13.14
2022-10-09T22:30:48.377Z,13.12
2022-10-09T22:33:58.780Z,13.08
2022-10-09T22:37:00.258Z,13.08
2022-10-09T22:40:01.630Z,13.12
2022-10-09T22:43:03.000Z,13.07
2022-10-09T22:46:09.522Z,13.02
2022-10-09T22:49:14.146Z,13.06
2022-10-09T22:52:15.565Z,13.04
2022-10-09T22:55:16.990Z,13.04
2022-10-09T22:58:18.392Z,13.06
2022-10-09T23:01:24.965Z,13.02
2022-10-09T23:04:26.484Z,13.06
2022-10-09T23:07:27.868Z,13.02
2022-10-09T23:10:29.260Z,12.97
2022-10-09T23:13:30.716Z,12.93
2022-10-09T23:16:32.564Z,12.88
2022-10-09T23:19:34.659Z,12.89
2022-10-09T23:22:36.441Z,12.91
2022-10-09T23:25:41.746Z,12.97
2022-10-09T23:28:43.997Z,12.95
2022-10-09T23:31:46.477Z,12.94
2022-10-09T23:34:47.886Z,12.89
2022-10-09T23:37:49.307Z,12.86
2022-10-09T23:41:00.497Z,12.87
2022-10-09T23:44:02.208Z,12.77
2022-10-09T23:47:03.624Z,12.79
2022-10-09T23:50:06.334Z,12.80
2022-10-09T23:53:07.868Z,12.79
2022-10-09T23:56:23.172Z,12.75
2022-10-09T23:59:24.569Z,12.73
